sensor_id;sensor_type;location;lat;lon;timestamp;P1;durP1;ratioP1;P2;durP2;ratioP2
5696;SDS011;2873;50.966;7.210;2022-09-12T00:02:22;41.97;;;19.97;;
5696;SDS011;2873;50.966;7.210;2022-09-12T00:04:48;47.15;;;19.50;;
5696;SDS011;2873;50.966;7.210;2022-09-12T00:07:14;47.67;;;19.95;;
5696;SDS011;2873;50.966;7.210;2022-09-12T00:09:40;46.57;;;19.57;;
5696;SDS011;2873;50.966;7.210;2022-09-12T00:12:05;43.50;;;18.45;;
5696;SDS011;2873;50.966;7.210;2022-09-12T00:14:31;48.22;;;20.02;;
5696;SDS011;2873;50.966;7.210;2022-09-12T00:16:57;40.70;;;18.87;;
5696;SDS011;2873;50.966;7.210;2022-09-12T00:19:24;45.03;;;19.27;;
5696;SDS011;2873;50.966;7.210;2022-09-12T00:21:54;44.87;;;19.60;;
5696;SDS011;2873;50.966;7.210;2022-09-12T00:24:19;44.25;;;20.30;;
5696;SDS011;2873;50.966;7.210;2022-09-12T00:26:45;44.63;;;20.25;;
5696;SDS011;2873;50.966;7.210;2022-09-12T00:29:15;48.13;;;20.70;;
5696;SDS011;2873;50.966;7.210;2022-09-12T00:31:42;42.65;;;18.35;;
5696;SDS011;2873;50.966;7.210;2022-09-12T00:34:07;43.20;;;19.30;;
5696;SDS011;2873;50.966;7.210;2022-09-12T00:36:33;36.55;;;18.45;;
5696;SDS011;2873;50.966;7.210;2022-09-12T00:38:59;39.73;;;17.27;;
5696;SDS011;2873;50.966;7.210;2022-09-12T00:41:31;35.22;;;16.55;;
5696;SDS011;2873;50.966;7.210;2022-09-12T00:44:00;35.03;;;16.98;;
5696;SDS011;2873;50.966;7.210;2022-09-12T00:46:36;36.72;;;17.92;;
5696;SDS011;2873;50.966;7.210;2022-09-12T00:52:00;35.57;;;17.10;;
5696;SDS011;2873;50.966;7.210;2022-09-12T00:54:35;33.40;;;16.58;;
5696;SDS011;2873;50.966;7.210;2022-09-12T00:57:17;32.95;;;15.95;;
5696;SDS011;2873;50.966;7.210;2022-09-12T00:59:48;31.35;;;15.77;;
5696;SDS011;2873;50.966;7.210;2022-09-12T01:02:17;28.67;;;15.98;;
5696;SDS011;2873;50.966;7.210;2022-09-12T01:04:42;33.27;;;16.47;;
5696;SDS011;2873;50.966;7.210;2022-09-12T01:07:08;28.10;;;15.50;;
5696;SDS011;2873;50.966;7.210;2022-09-12T01:09:34;38.65;;;17.10;;
5696;SDS011;2873;50.966;7.210;2022-09-12T01:12:01;30.60;;;16.20;;
5696;SDS011;2873;50.966;7.210;2022-09-12T01:14:28;32.72;;;16.15;;
5696;SDS011;2873;50.966;7.210;2022-09-12T01:16:54;32.13;;;16.63;;
5696;SDS011;2873;50.966;7.210;2022-09-12T01:30:18;33.70;;;16.55;;
5696;SDS011;2873;50.966;7.210;2022-09-12T01:33:20;29.98;;;15.80;;
5696;SDS011;2873;50.966;7.210;2022-09-12T01:36:10;28.92;;;15.13;;
5696;SDS011;2873;50.966;7.210;2022-09-12T01:38:55;32.40;;;16.90;;
5696;SDS011;2873;50.966;7.210;2022-09-12T01:44:27;41.00;;;19.13;;
5696;SDS011;2873;50.966;7.210;2022-09-12T01:47:13;39.05;;;19.20;;
5696;SDS011;2873;50.966;7.210;2022-09-12T01:52:18;34.40;;;17.50;;
5696;SDS011;2873;50.966;7.210;2022-09-12T01:55:22;34.95;;;17.60;;
5696;SDS011;2873;50.966;7.210;2022-09-12T01:58:38;29.90;;;16.83;;
5696;SDS011;2873;50.966;7.210;2022-09-12T02:01:01;34.75;;;18.45;;
5696;SDS011;2873;50.966;7.210;2022-09-12T02:03:42;35.97;;;19.05;;
5696;SDS011;2873;50.966;7.210;2022-09-12T02:06:18;36.63;;;19.20;;
5696;SDS011;2873;50.966;7.210;2022-09-12T02:08:55;34.88;;;17.83;;
5696;SDS011;2873;50.966;7.210;2022-09-12T02:11:25;39.15;;;17.98;;
5696;SDS011;2873;50.966;7.210;2022-09-12T02:13:58;34.57;;;16.87;;
5696;SDS011;2873;50.966;7.210;2022-09-12T02:16:41;31.47;;;16.00;;
5696;SDS011;2873;50.966;7.210;2022-09-12T02:19:14;34.20;;;15.80;;
5696;SDS011;2873;50.966;7.210;2022-09-12T02:22:01;35.20;;;16.80;;
5696;SDS011;2873;50.966;7.210;2022-09-12T02:24:29;39.13;;;16.42;;
5696;SDS011;2873;50.966;7.210;2022-09-12T02:27:25;33.40;;;16.35;;
5696;SDS011;2873;50.966;7.210;2022-09-12T02:29:56;34.15;;;16.08;;
5696;SDS011;2873;50.966;7.210;2022-09-12T02:35:05;33.42;;;15.45;;
5696;SDS011;2873;50.966;7.210;2022-09-12T02:40:23;33.85;;;16.83;;
5696;SDS011;2873;50.966;7.210;2022-09-12T02:42:49;36.97;;;16.40;;
5696;SDS011;2873;50.966;7.210;2022-09-12T02:45:15;32.13;;;15.98;;
5696;SDS011;2873;50.966;7.210;2022-09-12T02:50:19;30.00;;;15.23;;
5696;SDS011;2873;50.966;7.210;2022-09-12T02:52:45;33.20;;;15.90;;
5696;SDS011;2873;50.966;7.210;2022-09-12T02:55:11;34.65;;;15.88;;
5696;SDS011;2873;50.966;7.210;2022-09-12T02:57:37;32.53;;;15.43;;
5696;SDS011;2873;50.966;7.210;2022-09-12T03:00:04;29.60;;;14.37;;
5696;SDS011;2873;50.966;7.210;2022-09-12T03:05:20;28.83;;;14.18;;
5696;SDS011;2873;50.966;7.210;2022-09-12T03:13:24;28.42;;;14.25;;
5696;SDS011;2873;50.966;7.210;2022-09-12T03:17:03;29.80;;;14.45;;
5696;SDS011;2873;50.966;7.210;2022-09-12T03:19:15;23.93;;;13.93;;
5696;SDS011;2873;50.966;7.210;2022-09-12T03:24:42;23.33;;;13.30;;
5696;SDS011;2873;50.966;7.210;2022-09-12T03:27:16;27.48;;;14.65;;
5696;SDS011;2873;50.966;7.210;2022-09-12T03:29:46;26.50;;;14.38;;
5696;SDS011;2873;50.966;7.210;2022-09-12T03:32:12;26.05;;;13.90;;
5696;SDS011;2873;50.966;7.210;2022-09-12T03:34:39;28.02;;;14.60;;
5696;SDS011;2873;50.966;7.210;2022-09-12T03:37:04;35.92;;;15.95;;
5696;SDS011;2873;50.966;7.210;2022-09-12T03:39:30;35.77;;;15.90;;
5696;SDS011;2873;50.966;7.210;2022-09-12T03:41:56;37.33;;;16.00;;
5696;SDS011;2873;50.966;7.210;2022-09-12T03:44:22;38.30;;;16.80;;
5696;SDS011;2873;50.966;7.210;2022-09-12T03:46:47;35.92;;;16.30;;
5696;SDS011;2873;50.966;7.210;2022-09-12T03:49:13;39.35;;;16.95;;
5696;SDS011;2873;50.966;7.210;2022-09-12T03:51:38;36.03;;;16.50;;
5696;SDS011;2873;50.966;7.210;2022-09-12T03:54:04;36.00;;;16.40;;
5696;SDS011;2873;50.966;7.210;2022-09-12T03:56:30;34.33;;;16.88;;
5696;SDS011;2873;50.966;7.210;2022-09-12T03:58:56;33.10;;;15.70;;
5696;SDS011;2873;50.966;7.210;2022-09-12T04:01:22;38.10;;;15.87;;
5696;SDS011;2873;50.966;7.210;2022-09-12T04:03:48;32.50;;;15.90;;
5696;SDS011;2873;50.966;7.210;2022-09-12T04:06:16;31.27;;;15.30;;
5696;SDS011;2873;50.966;7.210;2022-09-12T04:08:43;33.22;;;15.15;;
5696;SDS011;2873;50.966;7.210;2022-09-12T04:11:13;30.48;;;15.07;;
5696;SDS011;2873;50.966;7.210;2022-09-12T04:13:40;29.02;;;14.70;;
5696;SDS011;2873;50.966;7.210;2022-09-12T04:16:07;40.53;;;14.88;;
5696;SDS011;2873;50.966;7.210;2022-09-12T04:18:33;28.90;;;13.90;;
5696;SDS011;2873;50.966;7.210;2022-09-12T04:21:03;34.00;;;14.60;;
5696;SDS011;2873;50.966;7.210;2022-09-12T04:23:33;31.77;;;14.52;;
5696;SDS011;2873;50.966;7.210;2022-09-12T04:26:00;26.80;;;13.53;;
5696;SDS011;2873;50.966;7.210;2022-09-12T04:28:26;24.85;;;13.45;;
5696;SDS011;2873;50.966;7.210;2022-09-12T04:30:59;28.05;;;13.90;;
5696;SDS011;2873;50.966;7.210;2022-09-12T04:33:31;23.65;;;13.40;;
5696;SDS011;2873;50.966;7.210;2022-09-12T04:36:01;24.20;;;12.98;;
5696;SDS011;2873;50.966;7.210;2022-09-12T04:38:40;26.73;;;13.40;;
5696;SDS011;2873;50.966;7.210;2022-09-12T04:43:40;24.27;;;12.50;;
5696;SDS011;2873;50.966;7.210;2022-09-12T04:46:07;25.10;;;13.00;;
5696;SDS011;2873;50.966;7.210;2022-09-12T04:48:34;19.77;;;12.38;;
5696;SDS011;2873;50.966;7.210;2022-09-12T04:51:10;20.63;;;12.40;;
5696;SDS011;2873;50.966;7.210;2022-09-12T04:53:41;28.27;;;12.90;;
5696;SDS011;2873;50.966;7.210;2022-09-12T04:56:08;24.80;;;13.20;;
5696;SDS011;2873;50.966;7.210;2022-09-12T04:58:35;24.58;;;12.65;;
5696;SDS011;2873;50.966;7.210;2022-09-12T05:01:08;24.08;;;13.10;;
5696;SDS011;2873;50.966;7.210;2022-09-12T05:03:35;26.85;;;12.45;;
5696;SDS011;2873;50.966;7.210;2022-09-12T05:06:04;22.40;;;12.33;;
5696;SDS011;2873;50.966;7.210;2022-09-12T05:08:31;24.65;;;11.88;;
5696;SDS011;2873;50.966;7.210;2022-09-12T05:11:09;23.98;;;12.10;;
5696;SDS011;2873;50.966;7.210;2022-09-12T05:13:36;23.38;;;12.15;;
5696;SDS011;2873;50.966;7.210;2022-09-12T05:16:03;28.30;;;12.70;;
5696;SDS011;2873;50.966;7.210;2022-09-12T05:18:33;21.70;;;11.68;;
5696;SDS011;2873;50.966;7.210;2022-09-12T05:21:00;22.55;;;12.23;;
5696;SDS011;2873;50.966;7.210;2022-09-12T05:23:27;22.48;;;10.70;;
5696;SDS011;2873;50.966;7.210;2022-09-12T05:25:54;19.40;;;11.70;;
5696;SDS011;2873;50.966;7.210;2022-09-12T05:28:22;22.17;;;11.45;;
5696;SDS011;2873;50.966;7.210;2022-09-12T05:30:58;21.60;;;11.50;;
5696;SDS011;2873;50.966;7.210;2022-09-12T05:33:36;17.03;;;10.50;;
5696;SDS011;2873;50.966;7.210;2022-09-12T05:36:04;17.95;;;11.05;;
5696;SDS011;2873;50.966;7.210;2022-09-12T05:38:34;20.85;;;10.57;;
5696;SDS011;2873;50.966;7.210;2022-09-12T05:41:05;19.40;;;10.40;;
5696;SDS011;2873;50.966;7.210;2022-09-12T05:43:32;16.05;;;10.13;;
5696;SDS011;2873;50.966;7.210;2022-09-12T05:45:59;20.83;;;10.45;;
5696;SDS011;2873;50.966;7.210;2022-09-12T05:48:36;18.80;;;11.05;;
5696;SDS011;2873;50.966;7.210;2022-09-12T05:51:04;16.63;;;10.82;;
5696;SDS011;2873;50.966;7.210;2022-09-12T05:53:33;23.23;;;12.02;;
5696;SDS011;2873;50.966;7.210;2022-09-12T05:58:33;19.38;;;10.65;;
5696;SDS011;2873;50.966;7.210;2022-09-12T06:01:00;17.50;;;10.88;;
5696;SDS011;2873;50.966;7.210;2022-09-12T06:03:27;15.45;;;9.88;;
5696;SDS011;2873;50.966;7.210;2022-09-12T06:05:53;17.63;;;11.10;;
5696;SDS011;2873;50.966;7.210;2022-09-12T06:08:18;16.40;;;10.30;;
5696;SDS011;2873;50.966;7.210;2022-09-12T06:10:44;17.93;;;9.90;;
5696;SDS011;2873;50.966;7.210;2022-09-12T06:13:09;18.10;;;11.07;;
5696;SDS011;2873;50.966;7.210;2022-09-12T06:15:35;17.60;;;10.67;;
5696;SDS011;2873;50.966;7.210;2022-09-12T06:18:01;18.33;;;9.52;;
5696;SDS011;2873;50.966;7.210;2022-09-12T06:20:27;15.95;;;9.88;;
5696;SDS011;2873;50.966;7.210;2022-09-12T06:22:53;13.43;;;9.93;;
5696;SDS011;2873;50.966;7.210;2022-09-12T06:25:18;17.40;;;10.25;;
5696;SDS011;2873;50.966;7.210;2022-09-12T06:27:44;18.60;;;10.10;;
5696;SDS011;2873;50.966;7.210;2022-09-12T06:30:11;16.60;;;10.10;;
5696;SDS011;2873;50.966;7.210;2022-09-12T06:32:37;15.13;;;10.25;;
5696;SDS011;2873;50.966;7.210;2022-09-12T06:35:02;15.77;;;9.80;;
5696;SDS011;2873;50.966;7.210;2022-09-12T06:37:29;15.80;;;9.43;;
5696;SDS011;2873;50.966;7.210;2022-09-12T06:39:56;19.83;;;10.88;;
5696;SDS011;2873;50.966;7.210;2022-09-12T06:42:22;14.23;;;10.10;;
5696;SDS011;2873;50.966;7.210;2022-09-12T06:44:47;14.60;;;9.90;;
5696;SDS011;2873;50.966;7.210;2022-09-12T06:47:14;14.38;;;9.50;;
5696;SDS011;2873;50.966;7.210;2022-09-12T06:49:39;17.47;;;9.83;;
5696;SDS011;2873;50.966;7.210;2022-09-12T06:52:05;15.33;;;9.33;;
5696;SDS011;2873;50.966;7.210;2022-09-12T06:54:31;13.98;;;10.00;;
5696;SDS011;2873;50.966;7.210;2022-09-12T06:56:56;15.37;;;9.50;;
5696;SDS011;2873;50.966;7.210;2022-09-12T06:59:22;16.67;;;9.43;;
5696;SDS011;2873;50.966;7.210;2022-09-12T07:01:48;16.65;;;8.93;;
5696;SDS011;2873;50.966;7.210;2022-09-12T07:04:14;16.10;;;9.87;;
5696;SDS011;2873;50.966;7.210;2022-09-12T07:06:40;14.73;;;9.90;;
5696;SDS011;2873;50.966;7.210;2022-09-12T07:09:09;14.68;;;9.27;;
5696;SDS011;2873;50.966;7.210;2022-09-12T07:11:38;13.95;;;9.60;;
5696;SDS011;2873;50.966;7.210;2022-09-12T07:14:05;13.90;;;8.90;;
5696;SDS011;2873;50.966;7.210;2022-09-12T07:16:33;14.18;;;9.63;;
5696;SDS011;2873;50.966;7.210;2022-09-12T07:19:01;12.88;;;8.50;;
5696;SDS011;2873;50.966;7.210;2022-09-12T07:21:28;14.38;;;9.38;;
5696;SDS011;2873;50.966;7.210;2022-09-12T07:23:54;18.58;;;9.90;;
5696;SDS011;2873;50.966;7.210;2022-09-12T07:26:21;12.33;;;8.70;;
5696;SDS011;2873;50.966;7.210;2022-09-12T07:28:51;15.53;;;8.90;;
5696;SDS011;2873;50.966;7.210;2022-09-12T07:31:18;12.38;;;9.07;;
5696;SDS011;2873;50.966;7.210;2022-09-12T07:33:45;12.23;;;9.38;;
5696;SDS011;2873;50.966;7.210;2022-09-12T07:36:15;12.93;;;8.10;;
5696;SDS011;2873;50.966;7.210;2022-09-12T07:38:42;12.48;;;8.25;;
5696;SDS011;2873;50.966;7.210;2022-09-12T07:41:12;15.10;;;9.05;;
5696;SDS011;2873;50.966;7.210;2022-09-12T07:43:38;15.48;;;9.77;;
5696;SDS011;2873;50.966;7.210;2022-09-12T07:46:04;14.00;;;9.70;;
5696;SDS011;2873;50.966;7.210;2022-09-12T07:48:30;14.30;;;8.70;;
5696;SDS011;2873;50.966;7.210;2022-09-12T07:50:59;14.50;;;8.73;;
5696;SDS011;2873;50.966;7.210;2022-09-12T07:53:31;12.05;;;8.57;;
5696;SDS011;2873;50.966;7.210;2022-09-12T07:55:58;16.20;;;9.52;;
5696;SDS011;2873;50.966;7.210;2022-09-12T07:58:24;12.57;;;7.97;;
5696;SDS011;2873;50.966;7.210;2022-09-12T08:00:50;16.70;;;9.10;;
5696;SDS011;2873;50.966;7.210;2022-09-12T08:03:16;13.75;;;8.18;;
5696;SDS011;2873;50.966;7.210;2022-09-12T08:05:42;12.65;;;9.10;;
5696;SDS011;2873;50.966;7.210;2022-09-12T08:08:07;14.37;;;8.63;;
5696;SDS011;2873;50.966;7.210;2022-09-12T08:10:33;14.45;;;8.50;;
5696;SDS011;2873;50.966;7.210;2022-09-12T08:12:59;10.40;;;7.60;;
5696;SDS011;2873;50.966;7.210;2022-09-12T08:15:25;12.43;;;9.27;;
5696;SDS011;2873;50.966;7.210;2022-09-12T08:17:50;11.63;;;8.30;;
5696;SDS011;2873;50.966;7.210;2022-09-12T08:20:16;13.25;;;8.68;;
5696;SDS011;2873;50.966;7.210;2022-09-12T08:22:42;11.57;;;8.25;;
5696;SDS011;2873;50.966;7.210;2022-09-12T08:25:08;12.15;;;8.98;;
5696;SDS011;2873;50.966;7.210;2022-09-12T08:27:34;14.27;;;8.73;;
5696;SDS011;2873;50.966;7.210;2022-09-12T08:30:00;11.73;;;8.52;;
5696;SDS011;2873;50.966;7.210;2022-09-12T08:32:26;12.48;;;8.50;;
5696;SDS011;2873;50.966;7.210;2022-09-12T08:34:51;12.93;;;8.80;;
5696;SDS011;2873;50.966;7.210;2022-09-12T08:37:17;12.53;;;8.17;;
5696;SDS011;2873;50.966;7.210;2022-09-12T08:39:45;10.23;;;7.15;;
5696;SDS011;2873;50.966;7.210;2022-09-12T08:42:15;12.43;;;8.88;;
5696;SDS011;2873;50.966;7.210;2022-09-12T08:45:26;11.15;;;8.75;;
5696;SDS011;2873;50.966;7.210;2022-09-12T08:48:08;9.93;;;7.93;;
5696;SDS011;2873;50.966;7.210;2022-09-12T08:50:35;12.43;;;7.88;;
5696;SDS011;2873;50.966;7.210;2022-09-12T08:53:09;8.63;;;7.53;;
5696;SDS011;2873;50.966;7.210;2022-09-12T08:55:55;9.07;;;7.60;;
5696;SDS011;2873;50.966;7.210;2022-09-12T08:58:23;10.82;;;8.00;;
5696;SDS011;2873;50.966;7.210;2022-09-12T09:06:31;9.07;;;7.87;;
5696;SDS011;2873;50.966;7.210;2022-09-12T09:09:26;9.57;;;7.93;;
5696;SDS011;2873;50.966;7.210;2022-09-12T09:12:05;11.15;;;7.82;;
5696;SDS011;2873;50.966;7.210;2022-09-12T09:15:00;9.55;;;7.50;;
5696;SDS011;2873;50.966;7.210;2022-09-12T09:17:48;9.32;;;7.22;;
5696;SDS011;2873;50.966;7.210;2022-09-12T09:23:02;9.60;;;6.95;;
5696;SDS011;2873;50.966;7.210;2022-09-12T09:30:46;9.00;;;6.40;;
5696;SDS011;2873;50.966;7.210;2022-09-12T09:33:22;8.98;;;6.25;;
5696;SDS011;2873;50.966;7.210;2022-09-12T09:35:57;7.80;;;6.80;;
5696;SDS011;2873;50.966;7.210;2022-09-12T09:44:02;6.80;;;5.90;;
5696;SDS011;2873;50.966;7.210;2022-09-12T09:46:27;6.40;;;5.80;;
5696;SDS011;2873;50.966;7.210;2022-09-12T09:48:53;10.20;;;7.03;;
5696;SDS011;2873;50.966;7.210;2022-09-12T09:51:23;6.50;;;5.90;;
5696;SDS011;2873;50.966;7.210;2022-09-12T09:53:59;6.57;;;5.93;;
5696;SDS011;2873;50.966;7.210;2022-09-12T09:59:09;5.65;;;5.15;;
5696;SDS011;2873;50.966;7.210;2022-09-12T10:04:18;6.43;;;5.93;;
5696;SDS011;2873;50.966;7.210;2022-09-12T10:06:56;6.47;;;5.60;;
5696;SDS011;2873;50.966;7.210;2022-09-12T10:09:27;7.43;;;5.80;;
5696;SDS011;2873;50.966;7.210;2022-09-12T10:11:57;5.30;;;4.80;;
5696;SDS011;2873;50.966;7.210;2022-09-12T10:14:27;6.30;;;5.13;;
5696;SDS011;2873;50.966;7.210;2022-09-12T10:17:02;5.65;;;5.15;;
5696;SDS011;2873;50.966;7.210;2022-09-12T10:19:47;4.80;;;4.40;;
5696;SDS011;2873;50.966;7.210;2022-09-12T10:22:20;4.93;;;4.45;;
5696;SDS011;2873;50.966;7.210;2022-09-12T10:24:51;4.77;;;4.37;;
5696;SDS011;2873;50.966;7.210;2022-09-12T10:27:19;5.57;;;5.00;;
5696;SDS011;2873;50.966;7.210;2022-09-12T10:32:27;5.03;;;4.63;;
5696;SDS011;2873;50.966;7.210;2022-09-12T10:35:15;4.90;;;4.50;;
5696;SDS011;2873;50.966;7.210;2022-09-12T10:37:41;4.90;;;4.50;;
5696;SDS011;2873;50.966;7.210;2022-09-12T10:40:20;4.47;;;4.00;;
5696;SDS011;2873;50.966;7.210;2022-09-12T10:42:52;4.10;;;3.70;;
5696;SDS011;2873;50.966;7.210;2022-09-12T10:47:47;3.40;;;3.20;;
5696;SDS011;2873;50.966;7.210;2022-09-12T10:52:52;4.10;;;3.90;;
5696;SDS011;2873;50.966;7.210;2022-09-12T10:55:21;3.75;;;3.45;;
5696;SDS011;2873;50.966;7.210;2022-09-12T10:58:45;3.38;;;3.08;;
5696;SDS011;2873;50.966;7.210;2022-09-12T11:00:54;4.00;;;3.70;;
5696;SDS011;2873;50.966;7.210;2022-09-12T11:03:37;3.67;;;3.47;;
5696;SDS011;2873;50.966;7.210;2022-09-12T11:06:07;3.40;;;3.20;;
5696;SDS011;2873;50.966;7.210;2022-09-12T11:28:24;2.70;;;2.50;;
5696;SDS011;2873;50.966;7.210;2022-09-12T11:31:06;2.80;;;2.70;;
5696;SDS011;2873;50.966;7.210;2022-09-12T11:33:52;2.50;;;2.50;;
5696;SDS011;2873;50.966;7.210;2022-09-12T11:36:23;2.65;;;2.45;;
5696;SDS011;2873;50.966;7.210;2022-09-12T11:39:14;2.60;;;2.50;;
5696;SDS011;2873;50.966;7.210;2022-09-12T11:41:43;2.42;;;2.33;;
5696;SDS011;2873;50.966;7.210;2022-09-12T11:44:21;2.30;;;2.20;;
5696;SDS011;2873;50.966;7.210;2022-09-12T11:46:52;2.63;;;2.42;;
5696;SDS011;2873;50.966;7.210;2022-09-12T11:49:30;2.72;;;2.63;;
5696;SDS011;2873;50.966;7.210;2022-09-12T11:52:03;2.30;;;2.20;;
5696;SDS011;2873;50.966;7.210;2022-09-12T11:54:43;2.17;;;2.08;;
5696;SDS011;2873;50.966;7.210;2022-09-12T11:59:51;1.98;;;1.98;;
5696;SDS011;2873;50.966;7.210;2022-09-12T12:02:23;2.10;;;2.00;;
5696;SDS011;2873;50.966;7.210;2022-09-12T12:07:26;1.70;;;1.70;;
5696;SDS011;2873;50.966;7.210;2022-09-12T12:10:02;2.67;;;2.30;;
5696;SDS011;2873;50.966;7.210;2022-09-12T12:12:29;2.15;;;2.15;;
5696;SDS011;2873;50.966;7.210;2022-09-12T12:14:55;1.92;;;1.83;;
5696;SDS011;2873;50.966;7.210;2022-09-12T12:17:22;1.90;;;1.80;;
5696;SDS011;2873;50.966;7.210;2022-09-12T12:19:56;1.90;;;1.80;;
5696;SDS011;2873;50.966;7.210;2022-09-12T12:22:24;2.03;;;1.90;;
5696;SDS011;2873;50.966;7.210;2022-09-12T12:25:04;1.60;;;1.60;;
5696;SDS011;2873;50.966;7.210;2022-09-12T12:27:48;2.03;;;1.75;;
5696;SDS011;2873;50.966;7.210;2022-09-12T12:37:59;1.13;;;1.13;;
5696;SDS011;2873;50.966;7.210;2022-09-12T12:40:26;1.55;;;1.48;;
5696;SDS011;2873;50.966;7.210;2022-09-12T12:42:57;1.75;;;1.70;;
5696;SDS011;2873;50.966;7.210;2022-09-12T12:47:59;2.20;;;1.73;;
5696;SDS011;2873;50.966;7.210;2022-09-12T12:50:33;1.42;;;1.42;;
5696;SDS011;2873;50.966;7.210;2022-09-12T12:58:06;1.90;;;1.80;;
5696;SDS011;2873;50.966;7.210;2022-09-12T13:04:00;1.70;;;1.70;;
5696;SDS011;2873;50.966;7.210;2022-09-12T13:06:35;2.13;;;1.92;;
5696;SDS011;2873;50.966;7.210;2022-09-12T13:09:04;1.45;;;1.45;;
5696;SDS011;2873;50.966;7.210;2022-09-12T13:11:45;1.33;;;1.33;;
5696;SDS011;2873;50.966;7.210;2022-09-12T13:17:07;2.40;;;1.50;;
5696;SDS011;2873;50.966;7.210;2022-09-12T13:20:17;1.60;;;1.60;;
5696;SDS011;2873;50.966;7.210;2022-09-12T13:22:47;1.70;;;1.70;;
5696;SDS011;2873;50.966;7.210;2022-09-12T13:25:28;1.55;;;1.55;;
5696;SDS011;2873;50.966;7.210;2022-09-12T13:30:29;1.50;;;1.50;;
5696;SDS011;2873;50.966;7.210;2022-09-12T13:32:57;1.30;;;1.30;;
5696;SDS011;2873;50.966;7.210;2022-09-12T13:35:39;1.70;;;1.70;;
5696;SDS011;2873;50.966;7.210;2022-09-12T13:41:16;1.80;;;1.70;;
5696;SDS011;2873;50.966;7.210;2022-09-12T13:43:54;1.63;;;1.63;;
5696;SDS011;2873;50.966;7.210;2022-09-12T13:46:25;1.70;;;1.70;;
5696;SDS011;2873;50.966;7.210;2022-09-12T13:48:55;1.50;;;1.50;;
5696;SDS011;2873;50.966;7.210;2022-09-12T13:51:25;2.00;;;1.40;;
5696;SDS011;2873;50.966;7.210;2022-09-12T13:53:55;1.50;;;1.50;;
5696;SDS011;2873;50.966;7.210;2022-09-12T13:56:24;1.67;;;1.50;;
5696;SDS011;2873;50.966;7.210;2022-09-12T13:59:00;4.40;;;1.60;;
5696;SDS011;2873;50.966;7.210;2022-09-12T14:01:36;1.70;;;1.70;;
5696;SDS011;2873;50.966;7.210;2022-09-12T14:04:13;1.50;;;1.50;;
5696;SDS011;2873;50.966;7.210;2022-09-12T14:06:58;1.40;;;1.40;;
5696;SDS011;2873;50.966;7.210;2022-09-12T14:11:56;1.65;;;1.55;;
5696;SDS011;2873;50.966;7.210;2022-09-12T14:14:32;1.80;;;1.70;;
5696;SDS011;2873;50.966;7.210;2022-09-12T14:17:00;1.90;;;1.80;;
5696;SDS011;2873;50.966;7.210;2022-09-12T14:19:39;3.63;;;2.00;;
5696;SDS011;2873;50.966;7.210;2022-09-12T14:22:07;1.77;;;1.67;;
5696;SDS011;2873;50.966;7.210;2022-09-12T14:24:36;2.00;;;1.90;;
5696;SDS011;2873;50.966;7.210;2022-09-12T14:27:03;2.20;;;2.10;;
5696;SDS011;2873;50.966;7.210;2022-09-12T14:29:29;2.08;;;2.00;;
5696;SDS011;2873;50.966;7.210;2022-09-12T14:32:03;2.08;;;1.98;;
5696;SDS011;2873;50.966;7.210;2022-09-12T14:34:29;1.53;;;1.53;;
5696;SDS011;2873;50.966;7.210;2022-09-12T14:36:55;1.80;;;1.80;;
5696;SDS011;2873;50.966;7.210;2022-09-12T14:39:30;1.60;;;1.60;;
5696;SDS011;2873;50.966;7.210;2022-09-12T14:42:05;2.00;;;1.90;;
5696;SDS011;2873;50.966;7.210;2022-09-12T14:44:51;1.70;;;1.60;;
5696;SDS011;2873;50.966;7.210;2022-09-12T14:47:18;1.60;;;1.50;;
5696;SDS011;2873;50.966;7.210;2022-09-12T14:49:47;1.77;;;1.67;;
5696;SDS011;2873;50.966;7.210;2022-09-12T14:52:31;2.30;;;2.20;;
5696;SDS011;2873;50.966;7.210;2022-09-12T14:55:40;1.95;;;1.95;;
5696;SDS011;2873;50.966;7.210;2022-09-12T15:01:02;2.60;;;2.50;;
5696;SDS011;2873;50.966;7.210;2022-09-12T15:06:22;2.78;;;2.58;;
5696;SDS011;2873;50.966;7.210;2022-09-12T15:09:00;2.50;;;2.40;;
5696;SDS011;2873;50.966;7.210;2022-09-12T15:11:29;2.30;;;2.20;;
5696;SDS011;2873;50.966;7.210;2022-09-12T15:13:56;3.92;;;2.70;;
5696;SDS011;2873;50.966;7.210;2022-09-12T15:16:22;2.50;;;2.40;;
5696;SDS011;2873;50.966;7.210;2022-09-12T15:18:48;4.40;;;2.70;;
5696;SDS011;2873;50.966;7.210;2022-09-12T15:21:17;2.55;;;2.45;;
5696;SDS011;2873;50.966;7.210;2022-09-12T15:23:44;2.90;;;2.80;;
5696;SDS011;2873;50.966;7.210;2022-09-12T15:26:13;2.78;;;2.40;;
5696;SDS011;2873;50.966;7.210;2022-09-12T15:28:46;2.60;;;2.40;;
5696;SDS011;2873;50.966;7.210;2022-09-12T15:31:21;2.50;;;2.40;;
5696;SDS011;2873;50.966;7.210;2022-09-12T15:33:52;2.78;;;2.67;;
5696;SDS011;2873;50.966;7.210;2022-09-12T15:36:19;2.78;;;2.67;;
5696;SDS011;2873;50.966;7.210;2022-09-12T15:38:47;3.00;;;2.60;;
5696;SDS011;2873;50.966;7.210;2022-09-12T15:41:17;2.63;;;2.53;;
5696;SDS011;2873;50.966;7.210;2022-09-12T15:43:47;2.80;;;2.70;;
5696;SDS011;2873;50.966;7.210;2022-09-12T15:46:14;2.97;;;2.87;;
5696;SDS011;2873;50.966;7.210;2022-09-12T15:48:40;3.28;;;3.00;;
5696;SDS011;2873;50.966;7.210;2022-09-12T15:51:11;3.95;;;3.00;;
5696;SDS011;2873;50.966;7.210;2022-09-12T15:53:37;3.25;;;2.95;;
5696;SDS011;2873;50.966;7.210;2022-09-12T15:56:03;3.10;;;2.90;;
5696;SDS011;2873;50.966;7.210;2022-09-12T15:58:28;3.40;;;3.00;;
5696;SDS011;2873;50.966;7.210;2022-09-12T16:00:54;2.90;;;2.70;;
5696;SDS011;2873;50.966;7.210;2022-09-12T16:03:21;5.80;;;3.30;;
5696;SDS011;2873;50.966;7.210;2022-09-12T16:05:55;3.67;;;3.15;;
5696;SDS011;2873;50.966;7.210;2022-09-12T16:08:25;3.40;;;3.10;;
5696;SDS011;2873;50.966;7.210;2022-09-12T16:10:52;3.53;;;3.30;;
5696;SDS011;2873;50.966;7.210;2022-09-12T16:13:21;3.97;;;3.37;;
5696;SDS011;2873;50.966;7.210;2022-09-12T16:15:47;4.10;;;3.20;;
5696;SDS011;2873;50.966;7.210;2022-09-12T16:18:13;3.42;;;3.22;;
5696;SDS011;2873;50.966;7.210;2022-09-12T16:20:38;3.40;;;3.20;;
5696;SDS011;2873;50.966;7.210;2022-09-12T16:23:05;3.10;;;2.90;;
5696;SDS011;2873;50.966;7.210;2022-09-12T16:25:31;3.33;;;3.13;;
5696;SDS011;2873;50.966;7.210;2022-09-12T16:27:56;6.70;;;3.25;;
5696;SDS011;2873;50.966;7.210;2022-09-12T16:30:22;3.10;;;2.90;;
5696;SDS011;2873;50.966;7.210;2022-09-12T16:32:48;3.20;;;3.00;;
5696;SDS011;2873;50.966;7.210;2022-09-12T16:35:16;6.05;;;3.38;;
5696;SDS011;2873;50.966;7.210;2022-09-12T16:37:41;3.20;;;3.10;;
5696;SDS011;2873;50.966;7.210;2022-09-12T16:40:07;3.30;;;3.10;;
5696;SDS011;2873;50.966;7.210;2022-09-12T16:42:33;3.75;;;3.28;;
5696;SDS011;2873;50.966;7.210;2022-09-12T16:44:59;5.13;;;3.40;;
5696;SDS011;2873;50.966;7.210;2022-09-12T16:47:25;3.38;;;3.17;;
5696;SDS011;2873;50.966;7.210;2022-09-12T16:49:51;3.70;;;3.50;;
5696;SDS011;2873;50.966;7.210;2022-09-12T16:52:16;3.40;;;3.10;;
5696;SDS011;2873;50.966;7.210;2022-09-12T16:54:43;3.40;;;3.00;;
5696;SDS011;2873;50.966;7.210;2022-09-12T16:57:08;3.70;;;3.40;;
5696;SDS011;2873;50.966;7.210;2022-09-12T16:59:34;3.50;;;3.30;;
5696;SDS011;2873;50.966;7.210;2022-09-12T17:02:00;3.60;;;3.30;;
5696;SDS011;2873;50.966;7.210;2022-09-12T17:04:26;3.53;;;3.33;;
5696;SDS011;2873;50.966;7.210;2022-09-12T17:06:51;4.40;;;3.60;;
5696;SDS011;2873;50.966;7.210;2022-09-12T17:09:17;3.67;;;3.37;;
5696;SDS011;2873;50.966;7.210;2022-09-12T17:11:44;4.27;;;3.87;;
5696;SDS011;2873;50.966;7.210;2022-09-12T17:14:11;3.47;;;3.17;;
5696;SDS011;2873;50.966;7.210;2022-09-12T17:16:38;3.70;;;3.40;;
5696;SDS011;2873;50.966;7.210;2022-09-12T17:19:06;3.55;;;3.35;;
5696;SDS011;2873;50.966;7.210;2022-09-12T17:21:35;3.60;;;3.30;;
5696;SDS011;2873;50.966;7.210;2022-09-12T17:24:01;3.47;;;3.17;;
5696;SDS011;2873;50.966;7.210;2022-09-12T17:26:27;3.87;;;3.40;;
5696;SDS011;2873;50.966;7.210;2022-09-12T17:28:53;4.43;;;3.43;;
5696;SDS011;2873;50.966;7.210;2022-09-12T17:31:19;3.78;;;3.47;;
5696;SDS011;2873;50.966;7.210;2022-09-12T17:33:44;5.10;;;3.20;;
5696;SDS011;2873;50.966;7.210;2022-09-12T17:36:13;3.60;;;3.40;;
5696;SDS011;2873;50.966;7.210;2022-09-12T17:38:41;4.18;;;3.70;;
5696;SDS011;2873;50.966;7.210;2022-09-12T17:41:09;3.70;;;3.40;;